sensor_id;sensor_type;location;lat;lon;timestamp;temperature;humidity
2389;DHT22;1205;47.984;7.668;2024-03-17T00:00:43;10.60;99.90
2389;DHT22;1205;47.984;7.668;2024-03-17T00:03:09;10.70;99.90
2389;DHT22;1205;47.984;7.668;2024-03-17T00:05:38;10.70;99.90
2389;DHT22;1205;47.984;7.668;2024-03-17T00:08:04;10.70;99.90
2389;DHT22;1205;47.984;7.668;2024-03-17T00:10:33;10.70;99.90
2389;DHT22;1205;47.984;7.668;2024-03-17T00:12:59;10.70;99.90
2389;DHT22;1205;47.984;7.668;2024-03-17T00:15:26;10.60;99.90
2389;DHT22;1205;47.984;7.668;2024-03-17T00:17:52;10.60;99.90
2389;DHT22;1205;47.984;7.668;2024-03-17T00:20:17;10.60;99.90
2389;DHT22;1205;47.984;7.668;2024-03-17T00:22:49;10.60;99.90
2389;DHT22;1205;47.984;7.668;2024-03-17T00:25:17;10.50;99.90
2389;DHT22;1205;47.984;7.668;2024-03-17T00:27:45;10.50;99.90
2389;DHT22;1205;47.984;7.668;2024-03-17T00:30:13;10.50;99.90
2389;DHT22;1205;47.984;7.668;2024-03-17T00:32:39;10.50;99.90
2389;DHT22;1205;47.984;7.668;2024-03-17T00:35:09;10.40;99.90
2389;DHT22;1205;47.984;7.668;2024-03-17T00:37:36;10.40;99.90
2389;DHT22;1205;47.984;7.668;2024-03-17T00:40:02;10.40;99.90
2389;DHT22;1205;47.984;7.668;2024-03-17T00:42:28;10.40;99.90
2389;DHT22;1205;47.984;7.668;2024-03-17T00:44:53;10.30;99.90
2389;DHT22;1205;47.984;7.668;2024-03-17T00:47:20;10.40;99.90
2389;DHT22;1205;47.984;7.668;2024-03-17T00:49:45;10.30;99.90
2389;DHT22;1205;47.984;7.668;2024-03-17T00:52:11;10.40;99.90
2389;DHT22;1205;47.984;7.668;2024-03-17T00:54:36;10.40;99.90
2389;DHT22;1205;47.984;7.668;2024-03-17T00:57:02;10.40;99.90
2389;DHT22;1205;47.984;7.668;2024-03-17T00:59:28;10.40;99.90
2389;DHT22;1205;47.984;7.668;2024-03-17T01:01:53;10.40;99.90
2389;DHT22;1205;47.984;7.668;2024-03-17T01:04:19;10.40;99.90
2389;DHT22;1205;47.984;7.668;2024-03-17T01:06:44;10.40;99.90
2389;DHT22;1205;47.984;7.668;2024-03-17T01:09:10;10.40;99.90
2389;DHT22;1205;47.984;7.668;2024-03-17T01:11:35;10.40;99.90
2389;DHT22;1205;47.984;7.668;2024-03-17T01:14:01;10.40;99.90
2389;DHT22;1205;47.984;7.668;2024-03-17T01:16:27;10.40;99.90
2389;DHT22;1205;47.984;7.668;2024-03-17T01:18:52;10.40;99.90
2389;DHT22;1205;47.984;7.668;2024-03-17T01:21:19;10.30;99.90
2389;DHT22;1205;47.984;7.668;2024-03-17T01:23:45;10.40;99.90
2389;DHT22;1205;47.984;7.668;2024-03-17T01:26:10;10.40;99.90
2389;DHT22;1205;47.984;7.668;2024-03-17T01:28:36;10.40;99.90
2389;DHT22;1205;47.984;7.668;2024-03-17T01:31:06;10.40;99.90
2389;DHT22;1205;47.984;7.668;2024-03-17T01:33:31;10.40;99.90
2389;DHT22;1205;47.984;7.668;2024-03-17T01:35:57;10.40;99.90
2389;DHT22;1205;47.984;7.668;2024-03-17T01:38:23;10.40;99.90
2389;DHT22;1205;47.984;7.668;2024-03-17T01:40:48;10.30;99.90
2389;DHT22;1205;47.984;7.668;2024-03-17T01:43:14;10.30;99.90
2389;DHT22;1205;47.984;7.668;2024-03-17T01:45:39;10.30;99.90
2389;DHT22;1205;47.984;7.668;2024-03-17T01:48:11;10.30;99.90
2389;DHT22;1205;47.984;7.668;2024-03-17T01:50:38;10.20;99.90
2389;DHT22;1205;47.984;7.668;2024-03-17T01:53:05;10.30;99.90
2389;DHT22;1205;47.984;7.668;2024-03-17T01:55:33;10.20;99.90
2389;DHT22;1205;47.984;7.668;2024-03-17T01:58:00;10.20;99.90
2389;DHT22;1205;47.984;7.668;2024-03-17T02:00:26;10.20;99.90
2389;DHT22;1205;47.984;7.668;2024-03-17T02:02:54;10.10;99.90
2389;DHT22;1205;47.984;7.668;2024-03-17T02:05:19;10.10;99.90
2389;DHT22;1205;47.984;7.668;2024-03-17T02:07:45;10.00;99.90
2389;DHT22;1205;47.984;7.668;2024-03-17T02:10:10;9.90;99.90
2389;DHT22;1205;47.984;7.668;2024-03-17T02:12:37;9.80;99.90
2389;DHT22;1205;47.984;7.668;2024-03-17T02:15:03;9.70;99.90
2389;DHT22;1205;47.984;7.668;2024-03-17T02:17:31;9.70;99.90
2389;DHT22;1205;47.984;7.668;2024-03-17T02:19:57;9.70;99.90
2389;DHT22;1205;47.984;7.668;2024-03-17T02:22:22;9.70;99.90
2389;DHT22;1205;47.984;7.668;2024-03-17T02:24:49;9.60;99.90
2389;DHT22;1205;47.984;7.668;2024-03-17T02:27:14;9.50;99.90
2389;DHT22;1205;47.984;7.668;2024-03-17T02:29:40;9.50;99.90
2389;DHT22;1205;47.984;7.668;2024-03-17T02:32:06;9.50;99.90
2389;DHT22;1205;47.984;7.668;2024-03-17T02:34:37;9.50;99.90
2389;DHT22;1205;47.984;7.668;2024-03-17T02:37:03;9.50;99.90
2389;DHT22;1205;47.984;7.668;2024-03-17T02:39:30;9.40;99.90
2389;DHT22;1205;47.984;7.668;2024-03-17T02:44:32;9.30;99.90
2389;DHT22;1205;47.984;7.668;2024-03-17T02:46:59;9.20;99.90
2389;DHT22;1205;47.984;7.668;2024-03-17T02:49:25;9.20;99.90
2389;DHT22;1205;47.984;7.668;2024-03-17T02:51:55;9.20;99.90
2389;DHT22;1205;47.984;7.668;2024-03-17T02:54:22;9.20;99.90
2389;DHT22;1205;47.984;7.668;2024-03-17T02:56:50;9.10;99.90
2389;DHT22;1205;47.984;7.668;2024-03-17T02:59:16;9.10;99.90
2389;DHT22;1205;47.984;7.668;2024-03-17T03:01:42;9.00;99.90
2389;DHT22;1205;47.984;7.668;2024-03-17T03:04:08;8.90;99.90
2389;DHT22;1205;47.984;7.668;2024-03-17T03:06:34;8.90;99.90
2389;DHT22;1205;47.984;7.668;2024-03-17T03:08:59;8.80;99.90
2389;DHT22;1205;47.984;7.668;2024-03-17T03:11:25;8.80;99.90
2389;DHT22;1205;47.984;7.668;2024-03-17T03:13:51;8.70;99.90
2389;DHT22;1205;47.984;7.668;2024-03-17T03:16:17;8.70;99.90
2389;DHT22;1205;47.984;7.668;2024-03-17T03:18:44;8.60;99.90
2389;DHT22;1205;47.984;7.668;2024-03-17T03:21:11;8.60;99.90
2389;DHT22;1205;47.984;7.668;2024-03-17T03:23:36;8.60;99.90
2389;DHT22;1205;47.984;7.668;2024-03-17T03:26:03;8.50;99.90
2389;DHT22;1205;47.984;7.668;2024-03-17T03:28:31;8.50;99.90
2389;DHT22;1205;47.984;7.668;2024-03-17T03:30:57;8.40;99.90
2389;DHT22;1205;47.984;7.668;2024-03-17T03:33:23;8.50;99.90
2389;DHT22;1205;47.984;7.668;2024-03-17T03:35:49;8.40;99.90
2389;DHT22;1205;47.984;7.668;2024-03-17T03:38:16;8.40;99.90
2389;DHT22;1205;47.984;7.668;2024-03-17T03:40:43;8.30;99.90
2389;DHT22;1205;47.984;7.668;2024-03-17T03:43:09;8.30;99.90
2389;DHT22;1205;47.984;7.668;2024-03-17T03:45:36;8.30;99.90
2389;DHT22;1205;47.984;7.668;2024-03-17T03:48:02;8.30;99.90
2389;DHT22;1205;47.984;7.668;2024-03-17T03:50:29;8.20;99.90
2389;DHT22;1205;47.984;7.668;2024-03-17T03:52:55;8.10;99.90
2389;DHT22;1205;47.984;7.668;2024-03-17T03:55:20;8.10;99.90
2389;DHT22;1205;47.984;7.668;2024-03-17T03:57:46;8.00;99.90
2389;DHT22;1205;47.984;7.668;2024-03-17T04:00:17;8.00;99.90
2389;DHT22;1205;47.984;7.668;2024-03-17T04:02:51;8.00;99.90
2389;DHT22;1205;47.984;7.668;2024-03-17T04:05:20;8.00;99.90
2389;DHT22;1205;47.984;7.668;2024-03-17T04:07:47;8.00;99.90
2389;DHT22;1205;47.984;7.668;2024-03-17T04:10:14;8.00;99.90
2389;DHT22;1205;47.984;7.668;2024-03-17T04:12:40;7.90;99.90
2389;DHT22;1205;47.984;7.668;2024-03-17T04:15:06;7.90;99.90
2389;DHT22;1205;47.984;7.668;2024-03-17T04:17:33;7.90;99.90
2389;DHT22;1205;47.984;7.668;2024-03-17T04:19:59;7.90;99.90
2389;DHT22;1205;47.984;7.668;2024-03-17T04:22:24;8.00;99.90
2389;DHT22;1205;47.984;7.668;2024-03-17T04:24:51;7.90;99.90
2389;DHT22;1205;47.984;7.668;2024-03-17T04:27:20;7.90;99.90
2389;DHT22;1205;47.984;7.668;2024-03-17T04:29:53;7.80;99.90
2389;DHT22;1205;47.984;7.668;2024-03-17T04:32:25;7.80;99.90
2389;DHT22;1205;47.984;7.668;2024-03-17T04:34:52;7.80;99.90
2389;DHT22;1205;47.984;7.668;2024-03-17T04:37:18;7.80;99.90
2389;DHT22;1205;47.984;7.668;2024-03-17T04:39:44;7.70;99.90
2389;DHT22;1205;47.984;7.668;2024-03-17T04:42:14;7.70;99.90
2389;DHT22;1205;47.984;7.668;2024-03-17T04:44:41;7.70;99.90
2389;DHT22;1205;47.984;7.668;2024-03-17T04:47:06;7.70;99.90
2389;DHT22;1205;47.984;7.668;2024-03-17T04:49:42;7.70;99.90
2389;DHT22;1205;47.984;7.668;2024-03-17T04:52:09;7.70;99.90
2389;DHT22;1205;47.984;7.668;2024-03-17T04:54:35;7.60;99.90
2389;DHT22;1205;47.984;7.668;2024-03-17T04:57:01;7.60;99.90
2389;DHT22;1205;47.984;7.668;2024-03-17T04:59:27;7.50;99.90
2389;DHT22;1205;47.984;7.668;2024-03-17T05:01:53;7.50;99.90
2389;DHT22;1205;47.984;7.668;2024-03-17T05:04:19;7.60;99.90
2389;DHT22;1205;47.984;7.668;2024-03-17T05:06:45;7.60;99.90
2389;DHT22;1205;47.984;7.668;2024-03-17T05:09:12;7.50;99.90
2389;DHT22;1205;47.984;7.668;2024-03-17T05:11:39;7.50;99.90
2389;DHT22;1205;47.984;7.668;2024-03-17T05:14:05;7.50;99.90
2389;DHT22;1205;47.984;7.668;2024-03-17T05:16:30;7.50;99.90
2389;DHT22;1205;47.984;7.668;2024-03-17T05:18:56;7.50;99.90
2389;DHT22;1205;47.984;7.668;2024-03-17T05:21:21;7.40;99.90
2389;DHT22;1205;47.984;7.668;2024-03-17T05:23:49;7.40;99.90
2389;DHT22;1205;47.984;7.668;2024-03-17T05:26:14;7.40;99.90
2389;DHT22;1205;47.984;7.668;2024-03-17T05:28:40;7.40;99.90
2389;DHT22;1205;47.984;7.668;2024-03-17T05:31:06;7.30;99.90
2389;DHT22;1205;47.984;7.668;2024-03-17T05:33:31;7.30;99.90
2389;DHT22;1205;47.984;7.668;2024-03-17T05:35:59;7.30;99.90
2389;DHT22;1205;47.984;7.668;2024-03-17T05:38:29;7.30;99.90
2389;DHT22;1205;47.984;7.668;2024-03-17T05:40:59;7.30;99.90
2389;DHT22;1205;47.984;7.668;2024-03-17T05:43:35;7.30;99.90
2389;DHT22;1205;47.984;7.668;2024-03-17T05:46:11;7.30;99.90
2389;DHT22;1205;47.984;7.668;2024-03-17T05:48:40;7.40;99.90
2389;DHT22;1205;47.984;7.668;2024-03-17T05:51:07;7.30;99.90
2389;DHT22;1205;47.984;7.668;2024-03-17T05:53:33;7.40;99.90
2389;DHT22;1205;47.984;7.668;2024-03-17T05:56:00;7.40;99.90
2389;DHT22;1205;47.984;7.668;2024-03-17T05:58:25;7.40;99.90
2389;DHT22;1205;47.984;7.668;2024-03-17T06:00:51;7.40;99.90
2389;DHT22;1205;47.984;7.668;2024-03-17T06:03:16;7.40;99.90
2389;DHT22;1205;47.984;7.668;2024-03-17T06:05:43;7.40;99.90
2389;DHT22;1205;47.984;7.668;2024-03-17T06:08:10;7.40;99.90
2389;DHT22;1205;47.984;7.668;2024-03-17T06:10:37;7.40;99.90
2389;DHT22;1205;47.984;7.668;2024-03-17T06:13:04;7.40;99.90
2389;DHT22;1205;47.984;7.668;2024-03-17T06:15:30;7.50;99.90
2389;DHT22;1205;47.984;7.668;2024-03-17T06:17:56;7.60;99.90
2389;DHT22;1205;47.984;7.668;2024-03-17T06:20:23;7.60;99.90
2389;DHT22;1205;47.984;7.668;2024-03-17T06:22:50;7.60;99.90
2389;DHT22;1205;47.984;7.668;2024-03-17T06:25:16;7.60;99.90
2389;DHT22;1205;47.984;7.668;2024-03-17T06:27:42;7.70;99.90
2389;DHT22;1205;47.984;7.668;2024-03-17T06:30:13;7.70;99.90
2389;DHT22;1205;47.984;7.668;2024-03-17T06:32:43;7.80;99.90
2389;DHT22;1205;47.984;7.668;2024-03-17T06:35:14;7.80;99.90
2389;DHT22;1205;47.984;7.668;2024-03-17T06:37:50;7.80;99.90
2389;DHT22;1205;47.984;7.668;2024-03-17T06:40:18;7.80;99.90
2389;DHT22;1205;47.984;7.668;2024-03-17T06:42:44;7.90;99.90
2389;DHT22;1205;47.984;7.668;2024-03-17T06:45:10;7.80;99.90
2389;DHT22;1205;47.984;7.668;2024-03-17T06:47:37;7.90;99.90
2389;DHT22;1205;47.984;7.668;2024-03-17T06:50:03;7.90;99.90
2389;DHT22;1205;47.984;7.668;2024-03-17T06:52:29;7.90;99.90
2389;DHT22;1205;47.984;7.668;2024-03-17T06:54:56;7.90;99.90
2389;DHT22;1205;47.984;7.668;2024-03-17T06:57:23;8.00;99.90
2389;DHT22;1205;47.984;7.668;2024-03-17T06:59:49;7.90;99.90
2389;DHT22;1205;47.984;7.668;2024-03-17T07:02:14;8.10;99.90
2389;DHT22;1205;47.984;7.668;2024-03-17T07:04:43;8.20;99.90
2389;DHT22;1205;47.984;7.668;2024-03-17T07:07:09;8.30;99.90
2389;DHT22;1205;47.984;7.668;2024-03-17T07:09:34;8.40;99.90
2389;DHT22;1205;47.984;7.668;2024-03-17T07:12:00;8.50;99.90
2389;DHT22;1205;47.984;7.668;2024-03-17T07:14:25;8.70;99.90
2389;DHT22;1205;47.984;7.668;2024-03-17T07:16:52;8.80;99.90
2389;DHT22;1205;47.984;7.668;2024-03-17T07:19:17;9.00;99.90
2389;DHT22;1205;47.984;7.668;2024-03-17T07:21:43;9.20;99.90
2389;DHT22;1205;47.984;7.668;2024-03-17T07:24:08;9.30;99.90
2389;DHT22;1205;47.984;7.668;2024-03-17T07:26:34;9.40;99.90
2389;DHT22;1205;47.984;7.668;2024-03-17T07:29:00;9.40;99.90
2389;DHT22;1205;47.984;7.668;2024-03-17T07:31:25;9.50;99.90
2389;DHT22;1205;47.984;7.668;2024-03-17T07:33:51;9.50;99.90
2389;DHT22;1205;47.984;7.668;2024-03-17T07:36:17;9.60;99.90
2389;DHT22;1205;47.984;7.668;2024-03-17T07:38:42;9.60;99.90
2389;DHT22;1205;47.984;7.668;2024-03-17T07:41:09;9.60;99.90
2389;DHT22;1205;47.984;7.668;2024-03-17T07:43:38;9.70;99.90
2389;DHT22;1205;47.984;7.668;2024-03-17T07:46:08;9.70;99.90
2389;DHT22;1205;47.984;7.668;2024-03-17T07:48:37;9.70;99.90
2389;DHT22;1205;47.984;7.668;2024-03-17T07:51:04;9.80;99.90
2389;DHT22;1205;47.984;7.668;2024-03-17T07:53:31;9.90;99.90
2389;DHT22;1205;47.984;7.668;2024-03-17T07:56:01;10.10;99.90
2389;DHT22;1205;47.984;7.668;2024-03-17T07:58:27;10.30;99.90
2389;DHT22;1205;47.984;7.668;2024-03-17T08:00:57;10.40;99.90
2389;DHT22;1205;47.984;7.668;2024-03-17T08:03:25;10.50;99.90
2389;DHT22;1205;47.984;7.668;2024-03-17T08:05:51;10.60;99.90
2389;DHT22;1205;47.984;7.668;2024-03-17T08:08:18;10.50;99.90
2389;DHT22;1205;47.984;7.668;2024-03-17T08:10:44;10.70;99.90
2389;DHT22;1205;47.984;7.668;2024-03-17T08:13:09;10.70;99.90
2389;DHT22;1205;47.984;7.668;2024-03-17T08:15:35;10.80;99.90
2389;DHT22;1205;47.984;7.668;2024-03-17T08:18:01;10.80;99.90
2389;DHT22;1205;47.984;7.668;2024-03-17T08:20:28;10.90;99.90
2389;DHT22;1205;47.984;7.668;2024-03-17T08:22:53;11.10;99.90
2389;DHT22;1205;47.984;7.668;2024-03-17T08:25:19;11.20;99.90
2389;DHT22;1205;47.984;7.668;2024-03-17T08:27:45;11.20;99.90
2389;DHT22;1205;47.984;7.668;2024-03-17T08:30:12;11.20;99.90
2389;DHT22;1205;47.984;7.668;2024-03-17T08:32:38;11.20;99.90
2389;DHT22;1205;47.984;7.668;2024-03-17T08:35:05;11.30;99.90
2389;DHT22;1205;47.984;7.668;2024-03-17T08:37:31;11.30;99.90
2389;DHT22;1205;47.984;7.668;2024-03-17T08:39:57;11.30;99.90
2389;DHT22;1205;47.984;7.668;2024-03-17T08:42:23;11.30;99.90
2389;DHT22;1205;47.984;7.668;2024-03-17T08:44:48;11.40;99.90
2389;DHT22;1205;47.984;7.668;2024-03-17T08:47:14;11.50;99.90
2389;DHT22;1205;47.984;7.668;2024-03-17T08:49:39;11.50;99.90
2389;DHT22;1205;47.984;7.668;2024-03-17T08:52:05;11.40;99.90
2389;DHT22;1205;47.984;7.668;2024-03-17T08:54:30;11.40;99.90
2389;DHT22;1205;47.984;7.668;2024-03-17T08:56:56;11.60;99.90
2389;DHT22;1205;47.984;7.668;2024-03-17T08:59:22;11.60;99.90
2389;DHT22;1205;47.984;7.668;2024-03-17T09:01:47;11.70;99.90
2389;DHT22;1205;47.984;7.668;2024-03-17T09:04:13;11.80;99.90
2389;DHT22;1205;47.984;7.668;2024-03-17T09:06:38;11.90;99.90
2389;DHT22;1205;47.984;7.668;2024-03-17T09:09:04;12.00;99.90
2389;DHT22;1205;47.984;7.668;2024-03-17T09:11:31;12.00;99.90
2389;DHT22;1205;47.984;7.668;2024-03-17T09:13:57;12.10;99.90
2389;DHT22;1205;47.984;7.668;2024-03-17T09:16:24;12.10;99.90
2389;DHT22;1205;47.984;7.668;2024-03-17T09:18:51;12.00;99.90
2389;DHT22;1205;47.984;7.668;2024-03-17T09:21:17;12.10;99.90
2389;DHT22;1205;47.984;7.668;2024-03-17T09:23:43;12.30;99.90
2389;DHT22;1205;47.984;7.668;2024-03-17T09:26:10;12.30;99.90
2389;DHT22;1205;47.984;7.668;2024-03-17T09:28:37;12.40;99.90
2389;DHT22;1205;47.984;7.668;2024-03-17T09:31:03;12.40;99.90
2389;DHT22;1205;47.984;7.668;2024-03-17T09:33:34;12.60;99.90
2389;DHT22;1205;47.984;7.668;2024-03-17T09:36:10;12.60;99.90
2389;DHT22;1205;47.984;7.668;2024-03-17T09:38:39;12.40;99.90
2389;DHT22;1205;47.984;7.668;2024-03-17T09:41:06;12.50;99.90
2389;DHT22;1205;47.984;7.668;2024-03-17T09:43:34;12.40;99.90
2389;DHT22;1205;47.984;7.668;2024-03-17T09:46:04;12.40;99.90
2389;DHT22;1205;47.984;7.668;2024-03-17T09:48:30;12.40;99.90
2389;DHT22;1205;47.984;7.668;2024-03-17T09:51:00;12.50;99.90
2389;DHT22;1205;47.984;7.668;2024-03-17T09:53:28;12.60;99.90
2389;DHT22;1205;47.984;7.668;2024-03-17T09:56:13;12.70;99.90
2389;DHT22;1205;47.984;7.668;2024-03-17T09:58:44;12.60;99.90
2389;DHT22;1205;47.984;7.668;2024-03-17T10:01:10;12.70;99.90
2389;DHT22;1205;47.984;7.668;2024-03-17T10:03:50;12.80;99.90
2389;DHT22;1205;47.984;7.668;2024-03-17T10:06:29;13.00;99.90
2389;DHT22;1205;47.984;7.668;2024-03-17T10:08:57;13.10;99.90
2389;DHT22;1205;47.984;7.668;2024-03-17T10:11:41;13.20;99.90
2389;DHT22;1205;47.984;7.668;2024-03-17T10:14:08;13.00;99.90
2389;DHT22;1205;47.984;7.668;2024-03-17T10:16:35;13.00;99.90
2389;DHT22;1205;47.984;7.668;2024-03-17T10:19:23;12.90;99.90
2389;DHT22;1205;47.984;7.668;2024-03-17T10:21:49;13.50;99.90
2389;DHT22;1205;47.984;7.668;2024-03-17T10:24:24;13.80;99.90
2389;DHT22;1205;47.984;7.668;2024-03-17T10:26:58;14.10;99.90
2389;DHT22;1205;47.984;7.668;2024-03-17T10:31:55;13.70;99.90
2389;DHT22;1205;47.984;7.668;2024-03-17T10:34:22;13.50;99.90
2389;DHT22;1205;47.984;7.668;2024-03-17T10:36:51;13.50;99.90
2389;DHT22;1205;47.984;7.668;2024-03-17T10:39:24;13.30;99.90
2389;DHT22;1205;47.984;7.668;2024-03-17T10:42:00;13.30;99.90
2389;DHT22;1205;47.984;7.668;2024-03-17T10:44:37;13.40;99.90
2389;DHT22;1205;47.984;7.668;2024-03-17T10:47:04;13.30;99.90
2389;DHT22;1205;47.984;7.668;2024-03-17T10:49:36;13.60;99.90
2389;DHT22;1205;47.984;7.668;2024-03-17T10:52:07;13.60;99.90
2389;DHT22;1205;47.984;7.668;2024-03-17T10:54:34;13.80;99.90
2389;DHT22;1205;47.984;7.668;2024-03-17T10:59:41;13.90;99.90
2389;DHT22;1205;47.984;7.668;2024-03-17T11:02:21;13.90;99.90
2389;DHT22;1205;47.984;7.668;2024-03-17T11:04:53;13.90;99.90
2389;DHT22;1205;47.984;7.668;2024-03-17T11:07:20;14.00;99.90
2389;DHT22;1205;47.984;7.668;2024-03-17T11:09:47;14.10;99.90
2389;DHT22;1205;47.984;7.668;2024-03-17T11:12:45;14.20;99.90
2389;DHT22;1205;47.984;7.668;2024-03-17T11:17:53;14.10;99.90
2389;DHT22;1205;47.984;7.668;2024-03-17T11:20:26;14.10;99.90
2389;DHT22;1205;47.984;7.668;2024-03-17T11:22:55;14.30;99.90
2389;DHT22;1205;47.984;7.668;2024-03-17T11:27:52;14.20;99.90
2389;DHT22;1205;47.984;7.668;2024-03-17T11:39:01;14.50;99.90
2389;DHT22;1205;47.984;7.668;2024-03-17T11:44:24;14.70;99.90
2389;DHT22;1205;47.984;7.668;2024-03-17T11:46:56;14.50;99.90
2389;DHT22;1205;47.984;7.668;2024-03-17T11:49:37;14.40;99.90
2389;DHT22;1205;47.984;7.668;2024-03-17T11:52:05;14.40;99.90
2389;DHT22;1205;47.984;7.668;2024-03-17T11:54:34;14.40;99.90
2389;DHT22;1205;47.984;7.668;2024-03-17T11:57:05;14.60;99.90
2389;DHT22;1205;47.984;7.668;2024-03-17T11:59:32;14.70;99.90
2389;DHT22;1205;47.984;7.668;2024-03-17T12:01:59;14.50;99.90
2389;DHT22;1205;47.984;7.668;2024-03-17T12:04:25;14.40;99.90
2389;DHT22;1205;47.984;7.668;2024-03-17T12:06:58;14.40;99.90
2389;DHT22;1205;47.984;7.668;2024-03-17T12:09:29;14.30;99.90
2389;DHT22;1205;47.984;7.668;2024-03-17T12:12:04;14.20;99.90
2389;DHT22;1205;47.984;7.668;2024-03-17T12:14:31;14.00;99.90
2389;DHT22;1205;47.984;7.668;2024-03-17T12:16:59;14.00;99.90
2389;DHT22;1205;47.984;7.668;2024-03-17T12:19:25;14.00;99.90
2389;DHT22;1205;47.984;7.668;2024-03-17T12:21:53;13.90;99.90
2389;DHT22;1205;47.984;7.668;2024-03-17T12:24:24;14.00;99.90
2389;DHT22;1205;47.984;7.668;2024-03-17T12:26:51;14.00;99.90
2389;DHT22;1205;47.984;7.668;2024-03-17T12:29:30;13.90;99.90
2389;DHT22;1205;47.984;7.668;2024-03-17T12:31:59;14.00;99.90
2389;DHT22;1205;47.984;7.668;2024-03-17T12:34:26;13.90;99.90
2389;DHT22;1205;47.984;7.668;2024-03-17T12:36:53;13.80;99.90
2389;DHT22;1205;47.984;7.668;2024-03-17T12:39:27;13.90;99.90
2389;DHT22;1205;47.984;7.668;2024-03-17T12:42:08;13.80;99.90
2389;DHT22;1205;47.984;7.668;2024-03-17T12:44:39;13.80;99.90
2389;DHT22;1205;47.984;7.668;2024-03-17T12:47:13;14.10;99.90
2389;DHT22;1205;47.984;7.668;2024-03-17T12:49:48;14.00;99.90
2389;DHT22;1205;47.984;7.668;2024-03-17T12:52:21;14.10;99.90
2389;DHT22;1205;47.984;7.668;2024-03-17T12:57:45;14.20;99.90
2389;DHT22;1205;47.984;7.668;2024-03-17T13:00:30;14.10;99.90
2389;DHT22;1205;47.984;7.668;2024-03-17T13:03:03;14.00;99.90
2389;DHT22;1205;47.984;7.668;2024-03-17T13:05:32;14.20;99.90
2389;DHT22;1205;47.984;7.668;2024-03-17T13:07:58;14.00;99.90
2389;DHT22;1205;47.984;7.668;2024-03-17T13:10:25;14.20;99.90
2389;DHT22;1205;47.984;7.668;2024-03-17T13:13:01;14.30;99.90
2389;DHT22;1205;47.984;7.668;2024-03-17T13:15:28;14.20;99.90
2389;DHT22;1205;47.984;7.668;2024-03-17T13:17:59;14.30;99.90
2389;DHT22;1205;47.984;7.668;2024-03-17T13:20:25;14.40;99.90
2389;DHT22;1205;47.984;7.668;2024-03-17T13:22:51;14.40;99.90
2389;DHT22;1205;47.984;7.668;2024-03-17T13:25:24;14.50;99.90
2389;DHT22;1205;47.984;7.668;2024-03-17T13:27:52;14.40;99.90
2389;DHT22;1205;47.984;7.668;2024-03-17T13:30:19;14.20;99.90
2389;DHT22;1205;47.984;7.668;2024-03-17T13:32:47;14.30;99.90
2389;DHT22;1205;47.984;7.668;2024-03-17T13:35:18;14.30;99.90
2389;DHT22;1205;47.984;7.668;2024-03-17T13:37:48;14.20;99.90
2389;DHT22;1205;47.984;7.668;2024-03-17T13:40:15;14.40;99.90
2389;DHT22;1205;47.984;7.668;2024-03-17T13:42:47;14.50;99.90
2389;DHT22;1205;47.984;7.668;2024-03-17T13:45:13;14.50;99.90
2389;DHT22;1205;47.984;7.668;2024-03-17T13:47:39;14.50;99.90
2389;DHT22;1205;47.984;7.668;2024-03-17T13:50:06;14.50;99.90
2389;DHT22;1205;47.984;7.668;2024-03-17T13:52:36;14.50;99.90
2389;DHT22;1205;47.984;7.668;2024-03-17T13:55:02;14.50;99.90
2389;DHT22;1205;47.984;7.668;2024-03-17T13:57:34;14.50;99.90
2389;DHT22;1205;47.984;7.668;2024-03-17T14:00:00;14.50;99.90
2389;DHT22;1205;47.984;7.668;2024-03-17T14:02:25;14.50;99.90
2389;DHT22;1205;47.984;7.668;2024-03-17T14:04:51;14.60;99.90
2389;DHT22;1205;47.984;7.668;2024-03-17T14:07:16;14.60;99.90
2389;DHT22;1205;47.984;7.668;2024-03-17T14:09:42;14.40;99.90
2389;DHT22;1205;47.984;7.668;2024-03-17T14:12:08;14.40;99.90
2389;DHT22;1205;47.984;7.668;2024-03-17T14:14:34;14.60;99.90
2389;DHT22;1205;47.984;7.668;2024-03-17T14:16:59;14.50;99.90
2389;DHT22;1205;47.984;7.668;2024-03-17T14:19:25;14.50;99.90
2389;DHT22;1205;47.984;7.668;2024-03-17T14:21:51;14.50;99.90
2389;DHT22;1205;47.984;7.668;2024-03-17T14:24:16;14.60;99.90
2389;DHT22;1205;47.984;7.668;2024-03-17T14:26:42;14.80;99.90
2389;DHT22;1205;47.984;7.668;2024-03-17T14:29:08;14.70;99.90
2389;DHT22;1205;47.984;7.668;2024-03-17T14:31:33;14.60;99.90
2389;DHT22;1205;47.984;7.668;2024-03-17T14:34:03;14.60;99.90
2389;DHT22;1205;47.984;7.668;2024-03-17T14:36:31;14.50;99.90
2389;DHT22;1205;47.984;7.668;2024-03-17T14:38:58;14.40;99.90
2389;DHT22;1205;47.984;7.668;2024-03-17T14:41:24;14.30;99.90
2389;DHT22;1205;47.984;7.668;2024-03-17T14:43:52;14.20;99.90
2389;DHT22;1205;47.984;7.668;2024-03-17T14:46:18;14.20;99.90
2389;DHT22;1205;47.984;7.668;2024-03-17T14:48:43;14.10;99.90
2389;DHT22;1205;47.984;7.668;2024-03-17T14:51:10;14.00;99.90
2389;DHT22;1205;47.984;7.668;2024-03-17T14:53:36;13.90;99.90
2389;DHT22;1205;47.984;7.668;2024-03-17T14:56:02;13.80;99.90
2389;DHT22;1205;47.984;7.668;2024-03-17T14:58:29;13.70;99.90
2389;DHT22;1205;47.984;7.668;2024-03-17T15:00:55;13.60;99.90
2389;DHT22;1205;47.984;7.668;2024-03-17T15:03:20;13.50;99.90
2389;DHT22;1205;47.984;7.668;2024-03-17T15:05:46;13.50;99.90
2389;DHT22;1205;47.984;7.668;2024-03-17T15:08:11;13.50;99.90
2389;DHT22;1205;47.984;7.668;2024-03-17T15:10:37;13.50;99.90
2389;DHT22;1205;47.984;7.668;2024-03-17T15:13:02;13.40;99.90
2389;DHT22;1205;47.984;7.668;2024-03-17T15:15:28;13.40;99.90
2389;DHT22;1205;47.984;7.668;2024-03-17T15:17:54;13.40;99.90
2389;DHT22;1205;47.984;7.668;2024-03-17T15:20:19;13.50;99.90
2389;DHT22;1205;47.984;7.668;2024-03-17T15:22:50;13.50;99.90
2389;DHT22;1205;47.984;7.668;2024-03-17T15:25:17;13.50;99.90
2389;DHT22;1205;47.984;7.668;2024-03-17T15:27:43;13.60;99.90
2389;DHT22;1205;47.984;7.668;2024-03-17T15:30:14;13.60;99.90
2389;DHT22;1205;47.984;7.668;2024-03-17T15:32:43;13.60;99.90
2389;DHT22;1205;47.984;7.668;2024-03-17T15:35:10;13.60;99.90
2389;DHT22;1205;47.984;7.668;2024-03-17T15:37:36;13.70;99.90
2389;DHT22;1205;47.984;7.668;2024-03-17T15:40:02;13.70;99.90
2389;DHT22;1205;47.984;7.668;2024-03-17T15:42:27;13.80;99.90
2389;DHT22;1205;47.984;7.668;2024-03-17T15:44:53;13.70;99.90
2389;DHT22;1205;47.984;7.668;2024-03-17T15:47:18;13.70;99.90
2389;DHT22;1205;47.984;7.668;2024-03-17T15:49:45;13.70;99.90
2389;DHT22;1205;47.984;7.668;2024-03-17T15:52:10;13.60;99.90
2389;DHT22;1205;47.984;7.668;2024-03-17T15:54:36;13.50;99.90
2389;DHT22;1205;47.984;7.668;2024-03-17T15:57:01;13.60;99.90
2389;DHT22;1205;47.984;7.668;2024-03-17T15:59:28;13.50;99.90
2389;DHT22;1205;47.984;7.668;2024-03-17T16:01:53;13.50;99.90
2389;DHT22;1205;47.984;7.668;2024-03-17T16:04:19;13.50;99.90
2389;DHT22;1205;47.984;7.668;2024-03-17T16:06:50;13.50;99.90
2389;DHT22;1205;47.984;7.668;2024-03-17T16:09:15;13.50;99.90
2389;DHT22;1205;47.984;7.668;2024-03-17T16:11:43;13.50;99.90
2389;DHT22;1205;47.984;7.668;2024-03-17T16:14:08;13.50;99.90
2389;DHT22;1205;47.984;7.668;2024-03-17T16:16:34;13.50;99.90
2389;DHT22;1205;47.984;7.668;2024-03-17T16:19:03;13.50;99.90
2389;DHT22;1205;47.984;7.668;2024-03-17T16:21:31;13.50;99.90
2389;DHT22;1205;47.984;7.668;2024-03-17T16:26:29;13.40;99.90
2389;DHT22;1205;47.984;7.668;2024-03-17T16:28:55;13.60;99.90
2389;DHT22;1205;47.984;7.668;2024-03-17T16:31:22;13.50;99.90
2389;DHT22;1205;47.984;7.668;2024-03-17T16:33:50;13.40;99.90
2389;DHT22;1205;47.984;7.668;2024-03-17T16:36:17;13.40;99.90
2389;DHT22;1205;47.984;7.668;2024-03-17T16:38:43;13.40;99.90